Time;durP1;ratioP1;P1;durP2;ratioP2;P2;SDS_P1;SDS_P2;PMS_P1;PMS_P2;Temp;Humidity;BMP_temperature;BMP_pressure;BME280_temperature;BME280_humidity;BME280_pressure;Samples;Min_cycle;Max_cycle;Signal;HPM_P1;HPM_P2
2021/01/17 00:00:18;;;;;;;10.43;1.85;;;;;;;;;;4992625;28;20128;-59
2021/01/17 00:02:45;;;;;;;8.55;1.63;;;;;;;;;;4992704;28;20045;-59
2021/01/17 00:05:12;;;;;;;10.02;1.73;;;;;;;;;;4993154;28;20475;-58
2021/01/17 00:07:38;;;;;;;5.78;1.50;;;;;;;;;;4992848;28;20035;-58
2021/01/17 00:10:08;;;;;;;9.27;1.73;;;;;;;;;;4992693;28;20045;-58
2021/01/17 00:12:34;;;;;;;8.55;1.80;;;;;;;;;;4989574;28;20149;-58
2021/01/17 00:15:00;;;;;;;9.52;2.05;;;;;;;;;;4991375;28;20534;-58
2021/01/17 00:17:27;;;;;;;14.50;2.88;;;;;;;;;;4992315;28;20099;-58
2021/01/17 00:19:54;;;;;;;11.07;1.90;;;;;;;;;;4991415;28;20463;-57
2021/01/17 00:22:20;;;;;;;8.45;2.28;;;;;;;;;;4993439;28;20074;-57
2021/01/17 00:24:47;;;;;;;13.07;2.25;;;;;;;;;;4991407;28;20187;-56
2021/01/17 00:27:16;;;;;;;9.02;1.88;;;;;;;;;;4976261;28;20704;-57
2021/01/17 00:29:42;;;;;;;9.80;2.10;;;;;;;;;;4984529;28;20085;-57
2021/01/17 00:32:11;;;;;;;10.93;2.13;;;;;;;;;;4977771;28;20041;-54
2021/01/17 00:34:38;;;;;;;7.30;1.73;;;;;;;;;;4991332;28;20089;-58
2021/01/17 00:37:04;;;;;;;11.02;2.42;;;;;;;;;;4992492;28;20121;-57
2021/01/17 00:39:30;;;;;;;7.40;2.45;;;;;;;;;;4992561;28;20030;-58
2021/01/17 00:41:56;;;;;;;7.47;2.33;;;;;;;;;;4993749;28;20119;-55
2021/01/17 00:44:21;;;;;;;7.13;2.50;;;;;;;;;;4990806;28;20049;-55
2021/01/17 00:46:47;;;;;;;6.60;2.40;;;;;;;;;;4992593;28;20041;-58
2021/01/17 00:49:13;;;;;;;4.95;1.77;;;;;;;;;;4991962;28;20044;-56
2021/01/17 00:51:44;;;;;;;10.15;2.08;;;;;;;;;;4990740;28;20069;-57
2021/01/17 00:54:10;;;;;;;12.18;2.00;;;;;;;;;;4992787;28;20130;-57
2021/01/17 00:56:36;;;;;;;5.82;1.65;;;;;;;;;;4990769;28;20574;-58
2021/01/17 00:59:04;;;;;;;10.38;1.90;;;;;;;;;;4989189;28;20497;-57
2021/01/17 01:01:35;;;;;;;9.05;2.22;;;;;;;;;;4990405;28;20061;-56
2021/01/17 01:04:01;;;;;;;8.38;1.90;;;;;;;;;;4988363;28;20038;-57
2021/01/17 01:06:27;;;;;;;5.05;1.50;;;;;;;;;;4989725;28;20062;-58
2021/01/17 01:08:53;;;;;;;4.18;1.58;;;;;;;;;;4993264;28;20046;-56
2021/01/17 01:11:20;;;;;;;11.63;2.15;;;;;;;;;;4987695;28;21970;-58
2021/01/17 01:13:46;;;;;;;7.25;2.83;;;;;;;;;;4987650;28;21782;-57
2021/01/17 01:16:12;;;;;;;7.18;2.72;;;;;;;;;;4990149;28;20053;-58
2021/01/17 01:18:38;;;;;;;6.45;2.80;;;;;;;;;;4991703;28;20038;-58
2021/01/17 01:21:04;;;;;;;11.85;2.47;;;;;;;;;;4992584;28;20056;-58
2021/01/17 01:23:30;;;;;;;8.75;2.53;;;;;;;;;;4989721;28;20129;-58
2021/01/17 01:25:59;;;;;;;8.60;2.08;;;;;;;;;;4990817;28;20053;-58
2021/01/17 01:28:25;;;;;;;10.85;1.75;;;;;;;;;;4989563;28;20063;-54
2021/01/17 01:30:53;;;;;;;9.18;1.50;;;;;;;;;;4990545;28;20048;-56
2021/01/17 01:33:37;;;;;;;6.70;1.77;;;;;;;;;;4992031;28;20107;-57
2021/01/17 01:36:05;;;;;;;7.63;2.00;;;;;;;;;;4993465;28;20051;-60
2021/01/17 01:38:30;;;;;;;11.48;2.20;;;;;;;;;;4992679;28;20072;-57
2021/01/17 01:40:56;;;;;;;12.65;5.70;;;;;;;;;;4992185;28;20046;-58
2021/01/17 01:43:23;;;;;;;15.20;6.10;;;;;;;;;;4990882;28;20026;-55
2021/01/17 01:45:50;;;;;;;19.67;7.30;;;;;;;;;;4992874;28;20398;-57
2021/01/17 01:48:16;;;;;;;11.70;3.67;;;;;;;;;;4994338;28;20053;-58
2021/01/17 01:50:42;;;;;;;7.97;2.25;;;;;;;;;;4990931;28;20053;-57
2021/01/17 01:53:08;;;;;;;10.32;2.53;;;;;;;;;;4989687;28;20084;-57
2021/01/17 01:55:34;;;;;;;12.25;2.72;;;;;;;;;;4984942;28;20042;-59
2021/01/17 01:58:03;;;;;;;11.73;3.30;;;;;;;;;;4990039;28;20049;-55
2021/01/17 02:00:28;;;;;;;9.48;3.50;;;;;;;;;;4989236;28;20054;-56
2021/01/17 02:02:54;;;;;;;10.50;4.30;;;;;;;;;;4990095;28;20111;-59
2021/01/17 02:05:20;;;;;;;8.48;4.45;;;;;;;;;;4989311;28;20092;-59
2021/01/17 02:07:58;;;;;;;9.20;4.03;;;;;;;;;;4991875;28;20037;-58
2021/01/17 02:10:24;;;;;;;7.45;3.65;;;;;;;;;;4967603;28;20460;-58
2021/01/17 02:13:13;;;;;;;10.80;5.90;;;;;;;;;;4973666;28;20041;-58
2021/01/17 02:15:40;;;;;;;10.23;3.03;;;;;;;;;;4966066;28;20069;-57
2021/01/17 02:18:08;;;;;;;5.63;2.22;;;;;;;;;;4990798;28;20078;-57
2021/01/17 02:20:36;;;;;;;6.32;2.00;;;;;;;;;;4990022;28;20123;-57
2021/01/17 02:23:02;;;;;;;13.20;2.53;;;;;;;;;;4988568;28;20049;-58
2021/01/17 02:25:29;;;;;;;6.45;1.92;;;;;;;;;;4988626;28;20042;-57
2021/01/17 02:27:56;;;;;;;7.13;1.70;;;;;;;;;;4989338;28;20042;-55
2021/01/17 02:30:23;;;;;;;8.95;2.05;;;;;;;;;;4989681;28;20049;-58
2021/01/17 02:32:51;;;;;;;10.38;2.33;;;;;;;;;;4990661;28;20049;-55
2021/01/17 02:35:17;;;;;;;7.30;1.98;;;;;;;;;;4989695;28;20092;-57
2021/01/17 02:37:43;;;;;;;16.55;2.47;;;;;;;;;;4988096;28;20034;-58
2021/01/17 02:40:24;;;;;;;18.05;2.85;;;;;;;;;;4990561;28;20052;-58
2021/01/17 02:42:50;;;;;;;9.88;2.50;;;;;;;;;;4988649;28;20103;-58
2021/01/17 02:45:16;;;;;;;11.23;2.72;;;;;;;;;;4990450;28;20552;-57
2021/01/17 02:47:42;;;;;;;12.55;2.30;;;;;;;;;;4989453;28;20046;-57
2021/01/17 02:50:08;;;;;;;15.18;2.90;;;;;;;;;;4988556;28;20045;-57
2021/01/17 02:52:44;;;;;;;7.78;2.20;;;;;;;;;;4989272;28;20156;-58
2021/01/17 02:55:10;;;;;;;10.10;2.50;;;;;;;;;;4989457;28;20398;-57
2021/01/17 02:57:36;;;;;;;9.75;2.28;;;;;;;;;;4988802;28;20038;-58
2021/01/17 03:00:12;;;;;;;8.93;2.55;;;;;;;;;;4990520;28;20088;-58
2021/01/17 03:02:44;;;;;;;9.70;2.25;;;;;;;;;;4989981;28;20164;-57
2021/01/17 03:05:17;;;;;;;10.53;2.80;;;;;;;;;;4989539;28;20084;-57
2021/01/17 03:07:48;;;;;;;12.90;2.97;;;;;;;;;;4989978;28;20294;-58
2021/01/17 03:10:14;;;;;;;10.40;2.70;;;;;;;;;;4993958;28;20097;-58
2021/01/17 03:12:40;;;;;;;12.85;3.03;;;;;;;;;;4994370;28;20037;-58
2021/01/17 03:15:06;;;;;;;11.07;3.20;;;;;;;;;;4993269;28;20125;-58
2021/01/17 03:17:32;;;;;;;12.60;2.80;;;;;;;;;;4992671;28;20034;-55
2021/01/17 03:19:58;;;;;;;9.88;2.60;;;;;;;;;;4993418;28;20363;-56
2021/01/17 03:22:24;;;;;;;13.27;2.45;;;;;;;;;;4991372;28;20103;-57
2021/01/17 03:24:50;;;;;;;13.15;2.65;;;;;;;;;;4993825;28;20222;-58
2021/01/17 03:27:16;;;;;;;10.35;2.70;;;;;;;;;;4992749;28;20088;-58
2021/01/17 03:29:42;;;;;;;10.13;2.00;;;;;;;;;;4994589;28;20566;-58
2021/01/17 03:32:08;;;;;;;8.13;2.00;;;;;;;;;;4993174;28;20046;-57
2021/01/17 03:34:34;;;;;;;7.40;2.00;;;;;;;;;;4993547;28;20045;-58
2021/01/17 03:37:00;;;;;;;9.55;2.17;;;;;;;;;;4994321;28;20096;-58
2021/01/17 03:39:26;;;;;;;8.02;1.92;;;;;;;;;;4993678;28;20041;-58
2021/01/17 03:41:52;;;;;;;6.85;2.10;;;;;;;;;;4992258;28;20092;-57
2021/01/17 03:44:18;;;;;;;8.95;2.72;;;;;;;;;;4993575;28;20141;-58
2021/01/17 03:46:44;;;;;;;7.03;2.20;;;;;;;;;;4994756;28;20038;-58
2021/01/17 03:49:09;;;;;;;6.65;1.90;;;;;;;;;;4996510;28;20077;-57
2021/01/17 03:51:35;;;;;;;10.75;2.25;;;;;;;;;;4993082;28;20048;-59
2021/01/17 03:54:01;;;;;;;8.13;2.20;;;;;;;;;;4991913;28;20049;-57
2021/01/17 03:56:27;;;;;;;9.60;2.13;;;;;;;;;;4993553;28;20050;-60
2021/01/17 03:58:53;;;;;;;12.88;2.38;;;;;;;;;;4995100;28;20117;-57
2021/01/17 04:01:19;;;;;;;8.07;2.10;;;;;;;;;;4993173;28;20108;-58
2021/01/17 04:03:45;;;;;;;10.82;2.30;;;;;;;;;;4993805;28;20041;-56
2021/01/17 04:06:11;;;;;;;6.97;2.40;;;;;;;;;;4996728;28;20045;-57
2021/01/17 04:08:36;;;;;;;9.65;2.28;;;;;;;;;;4995146;28;20053;-55
2021/01/17 04:11:03;;;;;;;12.40;2.28;;;;;;;;;;4994044;28;20038;-58
2021/01/17 04:13:29;;;;;;;11.25;2.42;;;;;;;;;;4991269;28;20200;-57
2021/01/17 04:15:54;;;;;;;11.35;2.35;;;;;;;;;;4990635;28;20038;-58
2021/01/17 04:18:20;;;;;;;7.93;2.90;;;;;;;;;;4974732;28;20120;-56
2021/01/17 04:20:47;;;;;;;9.38;2.60;;;;;;;;;;4991889;28;20145;-57
2021/01/17 04:23:13;;;;;;;9.63;2.58;;;;;;;;;;4991475;28;20093;-57
2021/01/17 04:25:39;;;;;;;9.38;2.75;;;;;;;;;;4992284;28;20046;-57
2021/01/17 04:28:08;;;;;;;9.57;2.25;;;;;;;;;;4983108;28;20041;-58
2021/01/17 04:30:34;;;;;;;12.52;2.30;;;;;;;;;;4991961;28;20049;-58
2021/01/17 04:33:00;;;;;;;11.32;2.05;;;;;;;;;;4992329;28;20046;-55
2021/01/17 04:35:26;;;;;;;9.15;2.10;;;;;;;;;;4992261;28;20057;-58
2021/01/17 04:37:55;;;;;;;8.88;2.10;;;;;;;;;;4974816;28;20054;-58
2021/01/17 04:40:21;;;;;;;5.35;2.20;;;;;;;;;;4992079;28;20049;-56
2021/01/17 04:42:48;;;;;;;6.18;2.40;;;;;;;;;;4991016;28;20046;-58
2021/01/17 04:45:17;;;;;;;8.68;2.60;;;;;;;;;;4992544;28;20029;-55
2021/01/17 04:47:45;;;;;;;6.35;2.33;;;;;;;;;;4992445;28;20040;-57
2021/01/17 04:50:11;;;;;;;13.18;2.78;;;;;;;;;;4993330;28;20044;-57
2021/01/17 04:52:42;;;;;;;13.38;2.20;;;;;;;;;;4989698;28;22135;-57
2021/01/17 04:55:12;;;;;;;12.45;2.83;;;;;;;;;;4974378;28;20426;-58
2021/01/17 04:57:38;;;;;;;7.70;2.50;;;;;;;;;;4988381;28;20034;-55
2021/01/17 05:00:06;;;;;;;14.68;2.47;;;;;;;;;;4991058;28;20099;-57
2021/01/17 05:02:33;;;;;;;12.02;3.10;;;;;;;;;;4989321;28;20179;-57
2021/01/17 05:05:02;;;;;;;11.90;3.70;;;;;;;;;;4989821;28;20141;-57
2021/01/17 05:07:34;;;;;;;14.48;4.10;;;;;;;;;;4987614;28;20043;-58
2021/01/17 05:10:07;;;;;;;14.60;4.45;;;;;;;;;;4990066;28;20053;-59
2021/01/17 05:12:40;;;;;;;12.43;4.43;;;;;;;;;;4989184;28;20038;-57
2021/01/17 05:15:07;;;;;;;11.27;4.35;;;;;;;;;;4991018;28;20042;-58
2021/01/17 05:17:39;;;;;;;11.88;4.30;;;;;;;;;;4990428;28;20089;-57
2021/01/17 05:20:06;;;;;;;9.75;3.38;;;;;;;;;;4990963;28;20107;-58
2021/01/17 05:22:32;;;;;;;12.40;3.60;;;;;;;;;;4990844;28;20046;-58
2021/01/17 05:24:58;;;;;;;9.23;3.10;;;;;;;;;;4990351;28;20037;-57
2021/01/17 05:27:25;;;;;;;13.15;2.95;;;;;;;;;;4989948;28;20426;-56
2021/01/17 05:29:51;;;;;;;12.02;3.08;;;;;;;;;;4990459;28;20128;-59
2021/01/17 05:32:17;;;;;;;14.02;3.80;;;;;;;;;;4989640;28;20636;-58
2021/01/17 05:34:43;;;;;;;11.25;2.92;;;;;;;;;;4990917;28;20046;-58
2021/01/17 05:37:08;;;;;;;7.78;3.05;;;;;;;;;;4990800;28;20168;-59
2021/01/17 05:39:53;;;;;;;25.58;9.90;;;;;;;;;;4989019;28;20092;-58
2021/01/17 05:42:25;;;;;;;34.00;15.68;;;;;;;;;;4987519;28;20050;-58
2021/01/17 05:45:09;;;;;;;45.60;19.08;;;;;;;;;;4990985;28;20089;-58
2021/01/17 05:47:34;;;;;;;29.48;10.20;;;;;;;;;;4989240;28;20042;-58
2021/01/17 05:50:12;;;;;;;36.22;11.77;;;;;;;;;;4989487;28;20038;-58
2021/01/17 05:52:38;;;;;;;36.53;16.25;;;;;;;;;;4990372;28;20046;-57
2021/01/17 05:55:04;;;;;;;31.38;14.20;;;;;;;;;;4989832;28;20053;-55
2021/01/17 05:57:31;;;;;;;31.80;14.60;;;;;;;;;;4989651;28;20454;-58
2021/01/17 05:59:58;;;;;;;33.67;13.68;;;;;;;;;;4988407;28;20510;-57
2021/01/17 06:02:24;;;;;;;26.20;11.52;;;;;;;;;;4986504;28;20069;-58
2021/01/17 06:05:02;;;;;;;28.17;10.27;;;;;;;;;;4990393;28;20386;-59
2021/01/17 06:07:29;;;;;;;23.58;9.85;;;;;;;;;;4971640;28;20043;-58
2021/01/17 06:09:56;;;;;;;26.80;11.45;;;;;;;;;;4990092;28;20069;-57
2021/01/17 06:12:42;;;;;;;26.95;11.18;;;;;;;;;;4991148;28;20490;-57
2021/01/17 06:15:12;;;;;;;27.85;10.77;;;;;;;;;;4988424;28;20046;-58
2021/01/17 06:17:45;;;;;;;52.40;24.77;;;;;;;;;;4990409;28;20532;-58
2021/01/17 06:20:21;;;;;;;32.55;15.40;;;;;;;;;;4989488;28;20498;-56
2021/01/17 06:22:48;;;;;;;37.50;20.08;;;;;;;;;;4992682;28;20048;-57
2021/01/17 06:25:14;;;;;;;38.72;18.13;;;;;;;;;;4990779;28;20039;-58
2021/01/17 06:27:40;;;;;;;26.40;13.55;;;;;;;;;;4989009;28;20053;-58
2021/01/17 06:30:18;;;;;;;36.47;15.98;;;;;;;;;;4988296;28;22019;-58
2021/01/17 06:32:47;;;;;;;33.35;12.63;;;;;;;;;;4989252;28;20077;-58
2021/01/17 06:35:13;;;;;;;34.90;15.10;;;;;;;;;;4989555;28;20058;-59
2021/01/17 06:37:39;;;;;;;22.35;10.82;;;;;;;;;;4970743;28;20466;-57
2021/01/17 06:40:07;;;;;;;27.67;11.88;;;;;;;;;;4989033;28;20562;-58
2021/01/17 06:42:32;;;;;;;29.92;11.75;;;;;;;;;;4987298;28;20089;-58
2021/01/17 06:44:59;;;;;;;21.23;9.60;;;;;;;;;;4990068;28;20076;-57
2021/01/17 06:47:25;;;;;;;24.60;9.35;;;;;;;;;;4988437;28;20041;-56
2021/01/17 06:49:52;;;;;;;26.05;9.50;;;;;;;;;;4990588;28;20034;-57
2021/01/17 06:52:18;;;;;;;26.02;9.10;;;;;;;;;;4988819;28;20048;-58
2021/01/17 06:54:46;;;;;;;20.95;8.57;;;;;;;;;;4988015;28;20568;-58
2021/01/17 06:57:12;;;;;;;26.83;9.00;;;;;;;;;;4988219;28;20045;-57
2021/01/17 06:59:38;;;;;;;18.33;9.00;;;;;;;;;;4988141;28;20105;-54
2021/01/17 07:02:16;;;;;;;20.27;7.93;;;;;;;;;;4989523;28;20049;-57
2021/01/17 07:04:48;;;;;;;20.15;8.07;;;;;;;;;;4988690;28;20042;-56
2021/01/17 07:07:17;;;;;;;21.92;8.02;;;;;;;;;;4989024;28;20658;-57
2021/01/17 07:09:42;;;;;;;16.95;7.63;;;;;;;;;;4987385;28;20038;-57
2021/01/17 07:12:31;;;;;;;16.60;7.95;;;;;;;;;;4989037;28;20041;-57
2021/01/17 07:15:05;;;;;;;17.73;7.13;;;;;;;;;;4970227;28;20033;-56
2021/01/17 07:17:33;;;;;;;23.15;7.80;;;;;;;;;;4989609;28;20100;-57
2021/01/17 07:20:01;;;;;;;17.60;5.93;;;;;;;;;;4973530;28;20878;-56
2021/01/17 07:22:28;;;;;;;17.88;6.60;;;;;;;;;;4990041;28;20253;-57
2021/01/17 07:24:55;;;;;;;15.32;5.85;;;;;;;;;;4990802;28;20161;-57
2021/01/17 07:27:38;;;;;;;12.27;4.60;;;;;;;;;;4989381;28;20042;-57
2021/01/17 07:30:04;;;;;;;12.80;4.18;;;;;;;;;;4988558;28;22046;-56
2021/01/17 07:32:32;;;;;;;11.10;3.90;;;;;;;;;;4985638;28;20038;-57
2021/01/17 07:35:05;;;;;;;14.88;4.75;;;;;;;;;;4990921;28;20054;-57
2021/01/17 07:37:32;;;;;;;11.20;3.88;;;;;;;;;;4989700;28;20124;-57
2021/01/17 07:40:07;;;;;;;12.07;4.90;;;;;;;;;;4991582;28;20033;-57
2021/01/17 07:42:34;;;;;;;13.52;5.07;;;;;;;;;;4989319;28;20550;-57
2021/01/17 07:45:11;;;;;;;13.20;4.50;;;;;;;;;;4980239;28;20038;-57
2021/01/17 07:47:41;;;;;;;16.67;4.30;;;;;;;;;;4987066;28;20356;-57
2021/01/17 07:50:08;;;;;;;17.17;5.65;;;;;;;;;;4992474;28;20177;-57
2021/01/17 07:52:35;;;;;;;13.68;5.57;;;;;;;;;;4990026;28;20046;-56
2021/01/17 07:55:03;;;;;;;12.05;5.00;;;;;;;;;;4993770;28;20108;-56
2021/01/17 07:57:33;;;;;;;14.15;5.63;;;;;;;;;;4992507;28;20129;-58
2021/01/17 08:00:04;;;;;;;15.45;4.88;;;;;;;;;;4995150;28;20219;-57
2021/01/17 08:02:30;;;;;;;15.35;5.40;;;;;;;;;;4991510;28;20051;-58
2021/01/17 08:04:57;;;;;;;14.57;4.75;;;;;;;;;;4992359;28;20045;-57
2021/01/17 08:07:32;;;;;;;12.80;5.13;;;;;;;;;;4992488;28;20088;-57
2021/01/17 08:09:58;;;;;;;11.20;5.03;;;;;;;;;;4992412;28;20076;-58
2021/01/17 08:12:31;;;;;;;16.50;4.97;;;;;;;;;;4991538;28;20514;-57
2021/01/17 08:15:14;;;;;;;14.05;4.53;;;;;;;;;;4994113;28;20038;-56
2021/01/17 08:17:40;;;;;;;13.25;4.95;;;;;;;;;;4992820;28;20061;-58
2021/01/17 08:20:06;;;;;;;20.90;6.03;;;;;;;;;;4993823;28;20102;-56
2021/01/17 08:22:32;;;;;;;14.70;5.82;;;;;;;;;;4990995;28;20050;-57
2021/01/17 08:25:01;;;;;;;20.45;6.43;;;;;;;;;;4994265;28;20042;-57
2021/01/17 08:27:30;;;;;;;16.02;6.20;;;;;;;;;;4991814;28;20038;-55
2021/01/17 08:30:11;;;;;;;19.33;6.70;;;;;;;;;;4993258;28;20042;-59
2021/01/17 08:32:37;;;;;;;21.63;7.60;;;;;;;;;;4991590;28;20061;-55
2021/01/17 08:35:18;;;;;;;22.25;6.80;;;;;;;;;;4994346;28;20127;-59
2021/01/17 08:37:54;;;;;;;14.00;5.95;;;;;;;;;;4993791;28;20068;-56
2021/01/17 08:40:29;;;;;;;16.67;5.95;;;;;;;;;;4991661;28;20042;-57
2021/01/17 08:42:56;;;;;;;12.23;5.85;;;;;;;;;;4980172;28;20038;-58
2021/01/17 08:45:22;;;;;;;15.35;6.78;;;;;;;;;;4991311;28;20513;-59
2021/01/17 08:47:52;;;;;;;18.98;6.93;;;;;;;;;;4992733;28;20055;-59
2021/01/17 08:50:28;;;;;;;16.50;6.45;;;;;;;;;;4991500;28;20045;-55
2021/01/17 08:53:14;;;;;;;15.98;6.53;;;;;;;;;;4990218;28;20053;-57
2021/01/17 08:55:41;;;;;;;14.65;7.18;;;;;;;;;;4982148;28;20053;-57
2021/01/17 08:58:07;;;;;;;20.13;6.55;;;;;;;;;;4990881;28;20045;-57
2021/01/17 09:00:48;;;;;;;13.55;5.32;;;;;;;;;;4991494;28;20046;-57
2021/01/17 09:03:23;;;;;;;10.57;4.28;;;;;;;;;;4992198;28;20073;-58
2021/01/17 09:05:50;;;;;;;14.18;4.60;;;;;;;;;;4991498;28;20034;-58
2021/01/17 09:08:18;;;;;;;12.60;4.75;;;;;;;;;;4992472;28;20173;-58
2021/01/17 09:10:43;;;;;;;13.07;4.65;;;;;;;;;;4971074;28;20072;-58
2021/01/17 09:13:17;;;;;;;11.10;3.80;;;;;;;;;;4990931;28;20133;-58
2021/01/17 09:15:42;;;;;;;;;;;;;;;;;;4991512;28;20045;-55
2021/01/17 09:18:08;;;;;;;9.55;3.80;;;;;;;;;;4991638;28;20575;-58
2021/01/17 09:20:34;;;;;;;11.52;4.07;;;;;;;;;;4989968;28;20499;-58
2021/01/17 09:23:02;;;;;;;11.10;3.42;;;;;;;;;;4990911;28;20118;-57
2021/01/17 09:25:28;;;;;;;8.70;3.13;;;;;;;;;;4990533;28;21582;-57
2021/01/17 09:27:57;;;;;;;8.93;4.10;;;;;;;;;;4992439;28;20047;-57
2021/01/17 09:30:23;;;;;;;8.98;3.75;;;;;;;;;;4992330;28;20049;-57
2021/01/17 09:32:51;;;;;;;9.35;3.22;;;;;;;;;;4993275;28;20084;-57
2021/01/17 09:35:17;;;;;;;10.20;4.10;;;;;;;;;;4992428;28;20045;-58
2021/01/17 09:37:43;;;;;;;10.63;3.72;;;;;;;;;;4990988;28;20057;-57
2021/01/17 09:40:09;;;;;;;10.35;4.18;;;;;;;;;;4992427;28;20038;-57
2021/01/17 09:42:35;;;;;;;9.55;4.10;;;;;;;;;;4988562;28;20050;-56
2021/01/17 09:45:03;;;;;;;7.70;3.53;;;;;;;;;;4990641;28;20041;-57
2021/01/17 09:47:29;;;;;;;8.98;3.08;;;;;;;;;;4991818;28;20495;-56
2021/01/17 09:49:55;;;;;;;11.13;2.88;;;;;;;;;;4991229;28;20136;-55
2021/01/17 09:52:23;;;;;;;6.57;2.47;;;;;;;;;;4989754;28;20046;-58
2021/01/17 09:54:50;;;;;;;7.45;2.63;;;;;;;;;;4992522;28;20041;-55
2021/01/17 09:57:17;;;;;;;6.43;1.90;;;;;;;;;;4990575;28;20124;-54
2021/01/17 09:59:43;;;;;;;4.60;1.98;;;;;;;;;;4994009;28;20038;-56
2021/01/17 10:02:09;;;;;;;4.53;1.48;;;;;;;;;;4993751;28;21018;-56
2021/01/17 10:04:36;;;;;;;4.60;1.70;;;;;;;;;;4991337;28;20052;-58
2021/01/17 10:07:02;;;;;;;3.83;1.50;;;;;;;;;;4994103;28;20160;-57
2021/01/17 10:09:28;;;;;;;7.50;1.90;;;;;;;;;;4977590;28;20092;-58
2021/01/17 10:12:01;;;;;;;5.18;1.70;;;;;;;;;;4994460;28;20430;-58
2021/01/17 10:14:28;;;;;;;5.45;1.55;;;;;;;;;;4993964;28;20112;-58
2021/01/17 10:16:54;;;;;;;5.25;1.77;;;;;;;;;;4993104;28;20050;-58
2021/01/17 10:19:24;;;;;;;4.65;1.73;;;;;;;;;;4990760;28;20055;-58
2021/01/17 10:21:49;;;;;;;5.70;2.22;;;;;;;;;;4990822;28;20121;-58
2021/01/17 10:24:20;;;;;;;6.05;1.85;;;;;;;;;;4992995;28;20115;-58
2021/01/17 10:26:48;;;;;;;6.28;1.80;;;;;;;;;;4990792;28;20677;-58
2021/01/17 10:29:18;;;;;;;5.38;1.80;;;;;;;;;;4992496;28;20045;-57
2021/01/17 10:31:47;;;;;;;5.00;1.60;;;;;;;;;;4992556;28;20060;-57
2021/01/17 10:34:20;;;;;;;6.45;1.90;;;;;;;;;;4992295;28;20134;-58
2021/01/17 10:36:47;;;;;;;6.10;2.03;;;;;;;;;;4991527;28;20033;-56
2021/01/17 10:39:15;;;;;;;4.88;1.92;;;;;;;;;;4990945;28;20129;-57
2021/01/17 10:41:41;;;;;;;6.53;1.77;;;;;;;;;;4990140;28;20096;-57
2021/01/17 10:44:11;;;;;;;6.45;2.00;;;;;;;;;;4991772;28;20545;-57
2021/01/17 10:46:42;;;;;;;6.50;2.13;;;;;;;;;;4991913;28;20034;-57
2021/01/17 10:49:11;;;;;;;5.20;1.98;;;;;;;;;;4993734;28;20037;-58
2021/01/17 10:51:51;;;;;;;6.93;1.90;;;;;;;;;;4992867;28;20038;-56
2021/01/17 10:54:22;;;;;;;6.65;2.00;;;;;;;;;;4993217;28;20041;-57
2021/01/17 10:56:48;;;;;;;5.55;2.00;;;;;;;;;;4990960;28;20042;-58
2021/01/17 10:59:17;;;;;;;5.13;1.98;;;;;;;;;;4992320;28;20045;-57
2021/01/17 11:01:49;;;;;;;5.63;1.88;;;;;;;;;;4991967;28;20958;-57
2021/01/17 11:04:15;;;;;;;4.72;1.83;;;;;;;;;;4992316;28;20052;-57
2021/01/17 11:06:45;;;;;;;6.32;1.50;;;;;;;;;;4990277;28;20038;-54
2021/01/17 11:09:15;;;;;;;4.78;1.85;;;;;;;;;;4974213;28;20042;-54
2021/01/17 11:11:43;;;;;;;4.80;1.65;;;;;;;;;;4992864;28;20038;-58
2021/01/17 11:14:08;;;;;;;4.50;1.52;;;;;;;;;;4991639;28;20034;-57
2021/01/17 11:16:41;;;;;;;7.18;1.77;;;;;;;;;;4988812;28;20669;-56
2021/01/17 11:19:16;;;;;;;4.38;1.58;;;;;;;;;;4993012;28;20049;-57
2021/01/17 11:21:43;;;;;;;8.23;2.15;;;;;;;;;;4992131;28;20498;-58
2021/01/17 11:24:09;;;;;;;6.18;2.10;;;;;;;;;;4990019;28;20043;-54
2021/01/17 11:26:36;;;;;;;7.25;2.00;;;;;;;;;;4992535;28;20042;-57
2021/01/17 11:29:03;;;;;;;11.07;3.20;;;;;;;;;;4994068;28;20133;-57
2021/01/17 11:31:29;;;;;;;21.20;3.95;;;;;;;;;;4995669;28;20053;-56
2021/01/17 11:33:56;;;;;;;15.15;3.72;;;;;;;;;;4994939;28;20057;-56
2021/01/17 11:36:23;;;;;;;13.75;2.90;;;;;;;;;;4995158;28;20065;-56
2021/01/17 11:38:49;;;;;;;12.63;3.30;;;;;;;;;;4997634;28;20049;-55
2021/01/17 11:41:16;;;;;;;10.10;2.88;;;;;;;;;;4995014;28;20041;-56
2021/01/17 11:43:42;;;;;;;14.95;3.22;;;;;;;;;;4991693;28;20120;-55
2021/01/17 11:46:09;;;;;;;9.93;2.88;;;;;;;;;;4995961;28;20042;-56
2021/01/17 11:48:35;;;;;;;8.15;2.30;;;;;;;;;;4994116;28;20038;-56
2021/01/17 11:51:02;;;;;;;9.85;2.85;;;;;;;;;;4995200;28;20517;-57
2021/01/17 11:53:29;;;;;;;6.63;2.25;;;;;;;;;;4995138;28;20050;-58
2021/01/17 11:55:55;;;;;;;6.60;2.15;;;;;;;;;;4995059;28;20046;-57
2021/01/17 11:58:21;;;;;;;8.90;1.95;;;;;;;;;;4997119;28;20106;-56
2021/01/17 12:00:50;;;;;;;6.40;2.08;;;;;;;;;;4994564;28;20064;-56
2021/01/17 12:03:51;;;;;;;5.32;1.67;;;;;;;;;;4994899;28;20038;-53
2021/01/17 12:06:18;;;;;;;8.75;1.58;;;;;;;;;;4935441;29;20525;-56
2021/01/17 12:08:50;;;;;;;4.32;1.55;;;;;;;;;;4982791;28;20050;-54
2021/01/17 12:11:46;;;;;;;5.50;1.50;;;;;;;;;;4994324;28;20049;-56
2021/01/17 12:14:15;;;;;;;7.38;1.30;;;;;;;;;;4984862;28;20030;-56
2021/01/17 12:16:43;;;;;;;4.78;1.30;;;;;;;;;;4994465;28;20046;-57
2021/01/17 12:19:10;;;;;;;4.05;1.30;;;;;;;;;;4995007;28;20395;-55
2021/01/17 12:21:37;;;;;;;2.72;0.90;;;;;;;;;;4993943;28;20057;-56
2021/01/17 12:24:04;;;;;;;4.32;1.00;;;;;;;;;;4997316;28;20042;-55
2021/01/17 12:26:30;;;;;;;3.65;1.10;;;;;;;;;;4996079;28;20034;-56
2021/01/17 12:28:56;;;;;;;4.18;0.98;;;;;;;;;;4997215;28;20038;-57
2021/01/17 12:31:24;;;;;;;3.33;0.90;;;;;;;;;;4995614;28;20124;-55
2021/01/17 12:33:50;;;;;;;3.60;0.90;;;;;;;;;;4996170;28;20042;-57
2021/01/17 12:36:17;;;;;;;6.55;1.10;;;;;;;;;;4993122;28;20073;-55
2021/01/17 12:38:43;;;;;;;3.10;0.85;;;;;;;;;;4991693;28;20423;-57
2021/01/17 12:41:10;;;;;;;3.05;0.82;;;;;;;;;;4992657;28;20054;-57
2021/01/17 12:43:36;;;;;;;4.20;0.85;;;;;;;;;;4995869;28;20038;-56
2021/01/17 12:46:04;;;;;;;3.60;0.90;;;;;;;;;;4994027;28;20869;-57
2021/01/17 12:48:30;;;;;;;3.08;0.70;;;;;;;;;;4993018;28;20038;-58
2021/01/17 12:50:56;;;;;;;3.63;0.65;;;;;;;;;;4992870;28;20752;-56
2021/01/17 12:53:22;;;;;;;3.40;0.50;;;;;;;;;;4993228;28;20091;-58
2021/01/17 12:55:48;;;;;;;2.53;0.60;;;;;;;;;;4992339;28;20128;-56
2021/01/17 12:58:14;;;;;;;4.00;0.60;;;;;;;;;;4993567;28;20037;-57
2021/01/17 13:00:40;;;;;;;1.73;0.50;;;;;;;;;;4993273;28;20048;-57
2021/01/17 13:03:06;;;;;;;1.92;0.50;;;;;;;;;;4994265;28;20034;-57
2021/01/17 13:05:33;;;;;;;1.77;0.60;;;;;;;;;;4993178;28;20140;-55
2021/01/17 13:07:58;;;;;;;2.25;0.40;;;;;;;;;;4993813;28;20397;-57
2021/01/17 13:10:24;;;;;;;3.05;0.70;;;;;;;;;;4990872;28;20052;-58
2021/01/17 13:12:50;;;;;;;2.20;0.60;;;;;;;;;;4994886;28;20455;-57
2021/01/17 13:15:18;;;;;;;1.13;0.50;;;;;;;;;;4994512;28;20046;-57
2021/01/17 13:17:44;;;;;;;2.67;0.77;;;;;;;;;;4992107;28;20124;-57
2021/01/17 13:20:10;;;;;;;2.15;0.50;;;;;;;;;;4992424;28;20121;-54
2021/01/17 13:22:36;;;;;;;3.03;0.68;;;;;;;;;;4991492;28;20095;-54
2021/01/17 13:25:03;;;;;;;2.25;0.68;;;;;;;;;;4993114;28;20103;-54
2021/01/17 13:27:29;;;;;;;1.70;0.50;;;;;;;;;;4993668;28;22609;-56
2021/01/17 13:29:55;;;;;;;1.70;0.52;;;;;;;;;;4992551;28;20065;-57
2021/01/17 13:32:21;;;;;;;2.28;0.50;;;;;;;;;;4991761;28;21092;-57
2021/01/17 13:34:47;;;;;;;1.60;0.45;;;;;;;;;;4991511;28;20096;-57
2021/01/17 13:37:16;;;;;;;1.65;0.50;;;;;;;;;;4993636;28;20125;-56
2021/01/17 13:39:46;;;;;;;1.65;0.50;;;;;;;;;;4992005;28;20107;-57
2021/01/17 13:42:17;;;;;;;2.72;0.60;;;;;;;;;;4993387;28;20054;-56
2021/01/17 13:44:43;;;;;;;3.50;1.20;;;;;;;;;;4992035;28;20034;-58
2021/01/17 13:47:09;;;;;;;5.25;0.80;;;;;;;;;;4991472;28;20038;-54
2021/01/17 13:49:34;;;;;;;2.00;0.60;;;;;;;;;;4990183;28;20044;-54
2021/01/17 13:52:01;;;;;;;1.67;0.50;;;;;;;;;;4991456;28;20861;-56
2021/01/17 13:54:27;;;;;;;1.95;0.60;;;;;;;;;;4991781;28;20626;-57
2021/01/17 13:56:53;;;;;;;6.22;0.80;;;;;;;;;;4993463;28;20045;-59
2021/01/17 13:59:19;;;;;;;1.52;0.50;;;;;;;;;;4991862;28;20050;-57
2021/01/17 14:01:45;;;;;;;3.15;0.60;;;;;;;;;;4974225;28;20763;-57
2021/01/17 14:04:10;;;;;;;2.33;0.50;;;;;;;;;;4994244;28;20045;-57
2021/01/17 14:06:37;;;;;;;1.60;0.50;;;;;;;;;;4991724;28;20041;-58
2021/01/17 14:09:03;;;;;;;4.13;0.60;;;;;;;;;;4991542;28;20676;-58
2021/01/17 14:11:29;;;;;;;2.08;0.57;;;;;;;;;;4991601;28;20046;-57
2021/01/17 14:13:54;;;;;;;2.88;0.50;;;;;;;;;;4992425;28;20111;-57
2021/01/17 14:16:20;;;;;;;5.22;0.50;;;;;;;;;;4992206;28;20137;-58
2021/01/17 14:18:46;;;;;;;1.45;0.65;;;;;;;;;;4992639;28;20084;-55
2021/01/17 14:21:12;;;;;;;2.00;0.60;;;;;;;;;;4992695;28;20050;-57
2021/01/17 14:23:38;;;;;;;2.15;0.40;;;;;;;;;;4990312;28;21487;-55
2021/01/17 14:26:04;;;;;;;2.40;0.50;;;;;;;;;;4991469;28;20049;-57
2021/01/17 14:28:29;;;;;;;2.13;0.57;;;;;;;;;;4990133;28;20755;-57
2021/01/17 14:30:55;;;;;;;1.73;0.50;;;;;;;;;;4991392;28;20653;-58
2021/01/17 14:33:21;;;;;;;2.35;0.60;;;;;;;;;;4991562;28;20095;-57
2021/01/17 14:35:47;;;;;;;1.77;0.52;;;;;;;;;;4990742;28;20050;-57
2021/01/17 14:38:13;;;;;;;1.58;0.47;;;;;;;;;;4993248;28;20638;-58
2021/01/17 14:40:39;;;;;;;3.20;0.50;;;;;;;;;;4990918;28;20106;-57